createdAt,value
2023-05-18T00:05:45.012Z,84.80
2023-05-18T00:20:50.599Z,85.00
2023-05-18T00:35:57.204Z,85.50
2023-05-18T00:51:02.039Z,86.50
2023-05-18T01:06:07.505Z,87.00
2023-05-18T01:21:19.844Z,88.20
2023-05-18T01:36:24.434Z,89.00
2023-05-18T01:51:37.278Z,88.90
2023-05-18T02:06:41.769Z,90.10
2023-05-18T02:21:46.839Z,90.10
2023-05-18T02:36:51.520Z,91.00
2023-05-18T02:51:55.944Z,90.80
2023-05-18T03:07:02.673Z,92.00
2023-05-18T03:22:07.863Z,90.90
2023-05-18T03:37:12.689Z,91.20
2023-05-18T03:52:22.462Z,91.40
2023-05-18T04:07:27.068Z,92.00
2023-05-18T04:22:32.373Z,91.40
2023-05-18T04:37:40.308Z,91.10
2023-05-18T04:52:50.362Z,91.00
2023-05-18T05:07:57.613Z,91.00
2023-05-18T05:23:02.342Z,90.90
2023-05-18T05:38:07.533Z,91.00
2023-05-18T05:53:13.086Z,90.90
2023-05-18T06:08:18.027Z,90.60
2023-05-18T06:23:24.304Z,90.80
2023-05-18T06:38:37.543Z,90.60
2023-05-18T06:53:43.426Z,90.30
2023-05-18T07:08:48.744Z,90.10
2023-05-18T07:23:53.384Z,89.90
2023-05-18T07:38:59.100Z,89.80
2023-05-18T07:54:05.240Z,89.20
2023-05-18T08:09:09.945Z,89.40
2023-05-18T08:24:14.708Z,84.70
2023-05-18T08:39:19.249Z,85.70
2023-05-18T08:54:25.209Z,84.50
2023-05-18T09:09:30.861Z,80.80
2023-05-18T09:24:37.942Z,81.00
2023-05-18T09:39:43.635Z,80.00
2023-05-18T09:54:58.782Z,81.10
2023-05-18T10:10:07.148Z,82.50
2023-05-18T10:25:14.998Z,79.70
2023-05-18T10:40:22.368Z,80.90
2023-05-18T10:55:29.106Z,77.40
2023-05-18T11:10:42.436Z,73.10
2023-05-18T11:25:49.674Z,72.50
2023-05-18T11:41:00.739Z,65.40
2023-05-18T11:56:05.898Z,70.50
2023-05-18T12:11:11.602Z,69.10
2023-05-18T12:26:20.487Z,72.60
2023-05-18T12:41:26.518Z,62.60
2023-05-18T12:56:51.944Z,61.10
2023-05-18T13:12:07.293Z,64.10
2023-05-18T13:27:12.978Z,68.50
2023-05-18T13:42:21.035Z,67.40
2023-05-18T13:57:26.275Z,62.10
2023-05-18T14:12:30.758Z,55.20
2023-05-18T14:27:35.335Z,48.00
2023-05-18T14:42:39.750Z,45.20
2023-05-18T14:57:44.410Z,43.20
2023-05-18T15:12:49.469Z,41.90
2023-05-18T15:27:53.880Z,39.60
2023-05-18T15:42:58.341Z,40.00
2023-05-18T15:58:03.239Z,37.90
2023-05-18T16:13:08.808Z,38.60
2023-05-18T16:28:13.275Z,40.60
2023-05-18T16:43:17.681Z,41.30
2023-05-18T16:58:22.187Z,42.30
2023-05-18T17:13:26.651Z,43.30
2023-05-18T17:28:31.212Z,44.00
2023-05-18T17:43:35.811Z,45.50
2023-05-18T17:58:40.397Z,46.30
2023-05-18T18:13:44.816Z,46.90
2023-05-18T18:28:49.321Z,48.00
2023-05-18T18:43:54.918Z,48.50
2023-05-18T18:58:59.937Z,51.00
2023-05-18T19:14:05.129Z,53.30
2023-05-18T19:29:09.656Z,54.90
2023-05-18T19:44:14.250Z,55.40
2023-05-18T19:59:18.741Z,56.30
2023-05-18T20:14:23.409Z,57.30
2023-05-18T20:29:27.852Z,58.20
2023-05-18T20:44:32.402Z,59.20
2023-05-18T20:59:36.815Z,59.80
2023-05-18T21:14:41.404Z,61.80
2023-05-18T21:29:45.892Z,61.40
2023-05-18T21:44:50.307Z,62.20
2023-05-18T21:59:54.745Z,62.60
2023-05-18T22:14:59.257Z,64.10
2023-05-18T22:30:04.844Z,64.40
2023-05-18T22:45:11.538Z,66.70
2023-05-18T23:00:16.667Z,67.00
2023-05-18T23:15:22.105Z,67.30
2023-05-18T23:30:27.165Z,68.50
2023-05-18T23:45:32.483Z,70.20
